Time;durP1;ratioP1;P1;durP2;ratioP2;P2;SDS_P1;SDS_P2;PMS_P1;PMS_P2;Temp;Humidity;BMP_temperature;BMP_pressure;BME280_temperature;BME280_humidity;BME280_pressure;Samples;Min_cycle;Max_cycle;Signal;HPM_P1;HPM_P2
2023/05/04 00:01:52;;;;;;;10.02;2.30;;;21.40;50.60;;;;;;5042519;28;20067;-75
2023/05/04 00:04:19;;;;;;;6.75;2.50;;;21.40;50.80;;;;;;5023568;28;20068;-75
2023/05/04 00:06:48;;;;;;;7.40;2.38;;;21.40;51.00;;;;;;5028281;28;20029;-75
2023/05/04 00:09:15;;;;;;;6.43;2.35;;;21.40;51.00;;;;;;5042931;28;20098;-75
2023/05/04 00:11:41;;;;;;;8.05;2.58;;;21.40;50.80;;;;;;5043825;28;20104;-75
2023/05/04 00:14:07;;;;;;;9.80;3.08;;;21.40;51.20;;;;;;5042602;28;20052;-75
2023/05/04 00:16:34;;;;;;;6.32;2.25;;;21.40;51.20;;;;;;5043879;28;20021;-74
2023/05/04 00:19:00;;;;;;;9.52;2.42;;;21.40;51.10;;;;;;5050306;28;20047;-75
2023/05/04 00:21:26;;;;;;;8.77;2.58;;;21.40;51.20;;;;;;5040585;28;20022;-75
2023/05/04 00:23:51;;;;;;;7.10;2.40;;;21.40;50.80;;;;;;5039938;28;20403;-75
2023/05/04 00:26:17;;;;;;;7.22;2.50;;;21.40;50.80;;;;;;5053447;28;20087;-75
2023/05/04 00:28:43;;;;;;;4.70;2.10;;;21.40;51.10;;;;;;5034909;28;20079;-75
2023/05/04 00:31:09;;;;;;;7.00;2.30;;;21.40;50.70;;;;;;5051748;28;20061;-75
2023/05/04 00:33:35;;;;;;;6.10;2.50;;;21.40;50.90;;;;;;5052171;28;20526;-75
2023/05/04 00:36:04;;;;;;;7.25;2.63;;;21.40;50.70;;;;;;5042370;28;20177;-75
2023/05/04 00:38:30;;;;;;;7.38;2.90;;;21.40;51.00;;;;;;5042309;28;20033;-75
2023/05/04 00:40:59;;;;;;;9.07;2.28;;;21.30;50.70;;;;;;5026655;28;20035;-75
2023/05/04 00:43:25;;;;;;;5.45;2.20;;;21.30;50.60;;;;;;5052848;28;20475;-75
2023/05/04 00:45:51;;;;;;;7.38;2.60;;;21.40;50.80;;;;;;5051775;28;20060;-75
2023/05/04 00:48:17;;;;;;;5.40;2.25;;;21.40;50.70;;;;;;5051089;28;20541;-75
2023/05/04 00:50:43;;;;;;;5.28;2.17;;;21.30;50.70;;;;;;5051509;28;20501;-75
2023/05/04 00:53:10;;;;;;;5.50;2.58;;;21.30;50.80;;;;;;5035249;28;20025;-74
2023/05/04 00:55:39;;;;;;;6.32;2.30;;;21.30;50.70;;;;;;5051454;28;20025;-75
2023/05/04 00:58:06;;;;;;;7.25;2.60;;;21.30;50.70;;;;;;5050978;28;20033;-75
2023/05/04 01:00:32;;;;;;;7.00;2.60;;;21.30;50.60;;;;;;5051249;28;20033;-75
2023/05/04 01:02:58;;;;;;;8.20;2.65;;;21.30;50.70;;;;;;5052591;28;20478;-75
2023/05/04 01:05:29;;;;;;;7.18;2.38;;;21.30;50.70;;;;;;5052333;28;20171;-75
2023/05/04 01:08:02;;;;;;;6.97;2.10;;;21.30;50.90;;;;;;5052084;28;20082;-75
2023/05/04 01:11:10;;;;;;;6.82;2.30;;;21.30;50.80;;;;;;5051136;28;20092;-75
2023/05/04 01:13:37;;;;;;;6.75;2.38;;;21.30;50.80;;;;;;5012568;28;20491;-74
2023/05/04 01:16:05;;;;;;;6.07;2.17;;;21.30;51.20;;;;;;5029109;28;20053;-74
2023/05/04 01:18:31;;;;;;;8.13;2.10;;;21.30;51.20;;;;;;5038866;28;20111;-75
2023/05/04 01:20:56;;;;;;;7.25;2.72;;;21.30;50.90;;;;;;5063016;28;20021;-75
2023/05/04 01:23:23;;;;;;;5.45;2.20;;;21.30;51.00;;;;;;5040979;28;20037;-75
2023/05/04 01:26:09;;;;;;;5.25;2.40;;;21.30;50.50;;;;;;5045239;28;20032;-74
2023/05/04 01:28:46;;;;;;;6.63;2.50;;;21.30;50.60;;;;;;5050433;28;20120;-75
2023/05/04 01:31:15;;;;;;;6.20;2.40;;;21.30;50.50;;;;;;5050363;28;20025;-75
2023/05/04 01:33:43;;;;;;;6.15;2.22;;;21.30;50.50;;;;;;5049963;28;20506;-74
2023/05/04 01:36:10;;;;;;;4.40;2.33;;;21.30;50.60;;;;;;5045920;28;20017;-75
2023/05/04 01:38:35;;;;;;;8.68;2.55;;;21.30;50.80;;;;;;5050205;28;20083;-75
2023/05/04 01:41:01;;;;;;;4.80;2.13;;;21.30;50.60;;;;;;5050485;28;20064;-75
2023/05/04 01:43:27;;;;;;;7.70;2.17;;;21.30;50.80;;;;;;5049595;28;20099;-75
2023/05/04 01:45:53;;;;;;;9.07;2.40;;;21.30;50.80;;;;;;5041779;28;20106;-75
2023/05/04 01:48:19;;;;;;;6.45;2.47;;;21.30;50.80;;;;;;5049123;28;20537;-75
2023/05/04 01:50:44;;;;;;;7.82;2.90;;;21.30;50.80;;;;;;5047608;28;20021;-74
2023/05/04 01:53:10;;;;;;;5.28;2.13;;;21.30;50.90;;;;;;5042192;28;20017;-75
2023/05/04 01:55:36;;;;;;;5.30;2.40;;;21.30;50.90;;;;;;5047806;28;20383;-75
2023/05/04 01:58:02;;;;;;;7.47;2.53;;;21.30;51.00;;;;;;5049751;28;20025;-75
2023/05/04 02:00:28;;;;;;;6.97;2.20;;;21.30;50.90;;;;;;5049372;28;20032;-75
2023/05/04 02:02:53;;;;;;;4.65;2.22;;;21.30;51.00;;;;;;5041850;28;20039;-75
2023/05/04 02:05:19;;;;;;;5.28;2.00;;;21.30;51.10;;;;;;5041284;28;20495;-75
2023/05/04 02:07:45;;;;;;;4.57;2.20;;;21.30;51.10;;;;;;5041484;28;20549;-74
2023/05/04 02:10:11;;;;;;;12.00;2.40;;;21.30;51.00;;;;;;5043680;28;20097;-75
2023/05/04 02:12:37;;;;;;;5.47;2.20;;;21.30;51.10;;;;;;5044953;28;20029;-75
2023/05/04 02:15:03;;;;;;;6.10;1.85;;;21.30;50.90;;;;;;5040958;28;20387;-75
2023/05/04 02:17:30;;;;;;;6.45;2.28;;;21.30;51.20;;;;;;5040523;28;20041;-75
2023/05/04 02:19:55;;;;;;;7.28;2.25;;;21.30;51.00;;;;;;5040837;28;20478;-74
2023/05/04 02:22:21;;;;;;;4.22;2.25;;;21.30;51.20;;;;;;5030011;28;20029;-75
2023/05/04 02:24:47;;;;;;;8.80;2.55;;;21.30;51.00;;;;;;5036674;28;20032;-75
2023/05/04 02:27:13;;;;;;;4.93;2.15;;;21.30;50.90;;;;;;5039889;28;20111;-75
2023/05/04 02:29:38;;;;;;;4.78;2.30;;;21.30;50.80;;;;;;5042051;28;20173;-75
2023/05/04 02:32:04;;;;;;;4.70;2.08;;;21.30;50.80;;;;;;5039441;28;20037;-75
2023/05/04 02:34:30;;;;;;;7.43;2.42;;;21.30;50.80;;;;;;5023297;28;20060;-75
2023/05/04 02:36:56;;;;;;;4.82;2.40;;;21.30;50.90;;;;;;5052005;28;20040;-75
2023/05/04 02:39:21;;;;;;;7.00;2.15;;;21.30;50.90;;;;;;5060666;28;20021;-75
2023/05/04 02:41:47;;;;;;;5.82;2.05;;;21.20;50.70;;;;;;5046732;28;20112;-75
2023/05/04 02:44:13;;;;;;;6.47;2.17;;;21.20;50.60;;;;;;5021880;28;20034;-75
2023/05/04 02:46:39;;;;;;;7.78;2.30;;;21.30;52.40;;;;;;5053701;28;20053;-75
2023/05/04 02:49:05;;;;;;;12.48;2.30;;;21.30;52.30;;;;;;5050246;28;20037;-75
2023/05/04 02:51:31;;;;;;;5.88;1.75;;;21.30;52.00;;;;;;5047949;28;20025;-75
2023/05/04 02:53:56;;;;;;;3.58;1.83;;;21.20;51.60;;;;;;5051899;28;20064;-75
2023/05/04 02:56:23;;;;;;;9.57;2.58;;;21.30;51.60;;;;;;5040899;28;20017;-75
2023/05/04 02:58:49;;;;;;;6.15;1.90;;;21.20;51.50;;;;;;5040811;28;20034;-75
2023/05/04 03:01:14;;;;;;;6.65;2.20;;;21.20;51.60;;;;;;5043493;28;20057;-75
2023/05/04 03:03:40;;;;;;;7.75;2.35;;;21.30;51.60;;;;;;5040825;28;20115;-75
2023/05/04 03:06:06;;;;;;;6.15;2.00;;;21.20;51.60;;;;;;5043300;28;20029;-75
2023/05/04 03:08:32;;;;;;;5.47;1.92;;;21.20;51.70;;;;;;5052237;28;20028;-75
2023/05/04 03:10:58;;;;;;;12.07;2.65;;;21.20;51.80;;;;;;5043640;28;20398;-75
2023/05/04 03:13:23;;;;;;;9.52;2.35;;;21.20;51.60;;;;;;5025906;28;20032;-75
2023/05/04 03:15:49;;;;;;;5.70;2.08;;;21.10;51.50;;;;;;5057254;28;20128;-75
2023/05/04 03:18:15;;;;;;;5.75;2.22;;;21.20;51.50;;;;;;5042942;28;20040;-75
2023/05/04 03:20:41;;;;;;;6.60;2.22;;;21.20;51.60;;;;;;5044774;28;20037;-75
2023/05/04 03:23:09;;;;;;;5.70;2.38;;;21.20;51.60;;;;;;5044875;28;20447;-75
2023/05/04 03:25:36;;;;;;;7.25;2.05;;;21.20;51.30;;;;;;5053195;28;20064;-74
2023/05/04 03:28:02;;;;;;;5.82;1.98;;;21.20;51.30;;;;;;5045433;28;20111;-74
2023/05/04 03:30:28;;;;;;;8.32;2.05;;;21.20;51.20;;;;;;5040296;28;20104;-74
2023/05/04 03:32:57;;;;;;;12.40;2.20;;;21.20;51.20;;;;;;5041695;28;20099;-75
2023/05/04 03:35:23;;;;;;;5.65;2.10;;;21.20;51.10;;;;;;5045646;28;20028;-75
2023/05/04 03:37:49;;;;;;;6.13;2.28;;;21.20;51.10;;;;;;5044329;28;20033;-75
2023/05/04 03:40:15;;;;;;;8.25;2.35;;;21.20;51.30;;;;;;5041184;28;20403;-75
2023/05/04 03:42:41;;;;;;;5.78;2.50;;;21.20;51.10;;;;;;5042552;28;21084;-75
2023/05/04 03:45:07;;;;;;;6.25;2.38;;;21.20;51.20;;;;;;5043240;28;20548;-75
2023/05/04 03:47:33;;;;;;;5.65;2.03;;;21.20;51.40;;;;;;5042859;28;20498;-75
2023/05/04 03:49:58;;;;;;;4.15;1.80;;;21.20;51.30;;;;;;5043480;28;20025;-75
2023/05/04 03:52:25;;;;;;;6.65;2.28;;;21.20;51.50;;;;;;5046754;28;20411;-74
2023/05/04 03:54:51;;;;;;;4.90;1.95;;;21.20;51.40;;;;;;5047052;28;20027;-75
2023/05/04 03:57:17;;;;;;;7.97;2.42;;;21.20;51.50;;;;;;5051926;28;20442;-75
2023/05/04 03:59:43;;;;;;;5.00;1.75;;;21.20;51.30;;;;;;5039846;28;20079;-75
2023/05/04 04:02:09;;;;;;;5.30;2.13;;;21.20;51.40;;;;;;5043948;28;20017;-74
2023/05/04 04:04:35;;;;;;;5.10;2.17;;;21.20;51.30;;;;;;5045119;28;20502;-74
2023/05/04 04:07:01;;;;;;;10.65;2.80;;;21.20;51.50;;;;;;5047336;28;20041;-74
2023/05/04 04:09:29;;;;;;;5.15;2.35;;;21.20;51.40;;;;;;5025180;28;20083;-75
2023/05/04 04:11:55;;;;;;;7.35;2.10;;;21.20;51.50;;;;;;5058042;28;20033;-75
2023/05/04 04:14:22;;;;;;;6.82;2.70;;;21.20;51.50;;;;;;5046701;28;20014;-74
2023/05/04 04:16:54;;;;;;;18.13;2.63;;;21.20;51.60;;;;;;5041609;28;20029;-75
2023/05/04 04:19:20;;;;;;;5.18;2.30;;;21.20;51.60;;;;;;5047450;28;20037;-75
2023/05/04 04:21:46;;;;;;;5.25;2.35;;;21.20;51.60;;;;;;5047611;28;20025;-75
2023/05/04 04:24:12;;;;;;;6.05;2.65;;;21.20;51.50;;;;;;5040260;28;20096;-75
2023/05/04 04:26:37;;;;;;;6.40;2.38;;;21.20;51.50;;;;;;5048037;28;20029;-75
2023/05/04 04:29:03;;;;;;;9.18;2.20;;;21.20;51.50;;;;;;5051514;28;20029;-75
2023/05/04 04:31:29;;;;;;;6.15;2.38;;;21.20;51.50;;;;;;5046157;28;20107;-75
2023/05/04 04:33:55;;;;;;;6.32;2.63;;;21.20;52.40;;;;;;5038993;28;20022;-75
2023/05/04 04:36:21;;;;;;;6.97;2.60;;;21.20;51.60;;;;;;5045827;28;20021;-74
2023/05/04 04:38:47;;;;;;;7.05;2.08;;;21.20;51.70;;;;;;5043412;28;20030;-76
2023/05/04 04:41:13;;;;;;;7.75;2.40;;;21.20;51.80;;;;;;5042421;28;20407;-75
2023/05/04 04:43:38;;;;;;;4.75;2.05;;;21.20;51.60;;;;;;5033618;28;20033;-75
2023/05/04 04:46:04;;;;;;;6.03;2.30;;;21.20;51.70;;;;;;5042496;28;20026;-75
2023/05/04 04:48:30;;;;;;;4.95;2.25;;;21.20;51.90;;;;;;5050316;28;20044;-74
2023/05/04 04:50:56;;;;;;;4.90;2.42;;;21.30;51.80;;;;;;5042049;28;20029;-74
2023/05/04 04:53:22;;;;;;;6.70;2.20;;;21.20;51.90;;;;;;5038930;28;20024;-75
2023/05/04 04:55:47;;;;;;;6.03;2.15;;;21.20;51.60;;;;;;5046015;28;20486;-75
2023/05/04 04:58:13;;;;;;;6.22;2.53;;;21.20;51.60;;;;;;5048374;28;20037;-74
2023/05/04 05:00:39;;;;;;;5.40;2.50;;;21.20;51.80;;;;;;5050556;28;20020;-74
2023/05/04 05:03:05;;;;;;;8.45;2.60;;;21.20;51.70;;;;;;5041602;28;20060;-74
2023/05/04 05:05:30;;;;;;;7.97;2.63;;;21.20;52.30;;;;;;5038680;28;20651;-74
2023/05/04 05:07:56;;;;;;;5.18;2.38;;;21.20;51.90;;;;;;5045185;28;20024;-74
2023/05/04 05:10:22;;;;;;;6.20;2.38;;;21.20;51.80;;;;;;5042551;28;20029;-74
2023/05/04 05:12:49;;;;;;;6.28;2.40;;;21.20;51.80;;;;;;5042187;28;20025;-75
2023/05/04 05:15:15;;;;;;;8.13;2.78;;;21.20;51.80;;;;;;5039493;28;20025;-74
2023/05/04 05:17:41;;;;;;;5.88;2.75;;;21.20;51.70;;;;;;5047468;28;20021;-75
2023/05/04 05:20:10;;;;;;;6.75;2.83;;;21.30;52.10;;;;;;5041562;28;20026;-74
2023/05/04 05:22:40;;;;;;;5.55;2.15;;;21.30;51.80;;;;;;5042531;28;20041;-74
2023/05/04 05:25:09;;;;;;;7.78;2.88;;;21.20;51.80;;;;;;5039332;28;20029;-74
2023/05/04 05:27:35;;;;;;;5.00;2.38;;;21.30;51.90;;;;;;5037910;28;20092;-74
2023/05/04 05:30:02;;;;;;;9.75;2.83;;;21.30;52.90;;;;;;5049042;28;20544;-74
2023/05/04 05:32:28;;;;;;;6.55;2.88;;;21.30;51.90;;;;;;5072105;22;20131;-73
2023/05/04 05:34:54;;;;;;;6.82;2.78;;;21.30;52.00;;;;;;5033972;28;20044;-73
2023/05/04 05:37:20;;;;;;;5.85;2.42;;;21.30;52.30;;;;;;5053460;28;20016;-74
2023/05/04 05:39:46;;;;;;;6.53;2.67;;;21.30;52.00;;;;;;5061918;28;20025;-74
2023/05/04 05:42:12;;;;;;;6.45;2.72;;;21.30;53.20;;;;;;5066207;28;20021;-74
2023/05/04 05:44:38;;;;;;;6.28;2.70;;;21.30;53.10;;;;;;5064731;28;20071;-73
2023/05/04 05:47:04;;;;;;;4.72;2.65;;;21.30;53.30;;;;;;5053850;28;20025;-73
2023/05/04 05:49:30;;;;;;;8.82;3.08;;;21.30;53.20;;;;;;5070426;28;20122;-73
2023/05/04 05:51:57;;;;;;;6.25;2.78;;;21.30;53.00;;;;;;5060175;28;20056;-73
2023/05/04 05:54:23;;;;;;;7.68;2.47;;;21.30;53.30;;;;;;5060568;28;20029;-74
2023/05/04 05:56:50;;;;;;;6.25;2.65;;;21.30;53.40;;;;;;5061973;28;20040;-74
2023/05/04 05:59:16;;;;;;;6.53;2.70;;;21.30;53.10;;;;;;5069348;28;20028;-74
2023/05/04 06:01:41;;;;;;;20.77;2.90;;;21.30;53.50;;;;;;5061714;28;20119;-73
2023/05/04 06:04:07;;;;;;;8.60;2.80;;;21.30;53.30;;;;;;5060358;28;20059;-74
2023/05/04 06:06:34;;;;;;;6.75;2.55;;;21.30;53.00;;;;;;5059444;28;20108;-74
2023/05/04 06:08:59;;;;;;;6.38;2.63;;;21.30;53.00;;;;;;5053258;28;20025;-73
2023/05/04 06:11:26;;;;;;;8.80;2.85;;;21.30;53.10;;;;;;5059653;28;20027;-74
2023/05/04 06:13:52;;;;;;;13.55;3.35;;;21.30;54.00;;;;;;5065248;28;20462;-74
2023/05/04 06:16:18;;;;;;;8.40;2.72;;;21.30;52.60;;;;;;5057360;28;20082;-73
2023/05/04 06:18:44;;;;;;;7.47;3.40;;;21.30;53.20;;;;;;5053626;28;20033;-73
2023/05/04 06:21:10;;;;;;;24.05;3.80;;;21.40;53.10;;;;;;5065959;28;20033;-74
2023/05/04 06:23:36;;;;;;;14.40;3.78;;;21.40;52.70;;;;;;5065208;28;20428;-73
2023/05/04 06:26:06;;;;;;;9.60;3.20;;;21.40;53.20;;;;;;5060687;28;20029;-74
2023/05/04 06:28:33;;;;;;;13.68;3.88;;;21.40;53.40;;;;;;5060113;28;20108;-75
2023/05/04 06:30:59;;;;;;;8.95;3.10;;;21.50;53.50;;;;;;5061578;28;21461;-74
2023/05/04 06:33:25;;;;;;;17.38;4.13;;;21.50;52.70;;;;;;5067556;28;20057;-74
2023/05/04 06:35:51;;;;;;;10.23;3.47;;;21.50;54.70;;;;;;5053528;28;20025;-74
2023/05/04 06:38:17;;;;;;;11.38;3.50;;;21.50;54.30;;;;;;5059985;28;20024;-74
2023/05/04 06:40:43;;;;;;;12.27;3.75;;;21.40;54.10;;;;;;5065784;28;20029;-74
2023/05/04 06:43:09;;;;;;;10.05;3.33;;;21.40;54.30;;;;;;5063199;28;20032;-74
2023/05/04 06:45:36;;;;;;;9.00;3.25;;;21.40;54.80;;;;;;5056125;28;20592;-74
2023/05/04 06:48:02;;;;;;;10.82;3.55;;;21.40;54.60;;;;;;5059133;28;20029;-74
2023/05/04 06:50:29;;;;;;;8.23;3.47;;;21.40;54.70;;;;;;5057344;28;20025;-74
2023/05/04 06:53:21;;;;;;;9.45;3.38;;;21.40;54.70;;;;;;5042398;28;20497;-74
2023/05/04 06:55:47;;;;;;;8.65;3.03;;;21.40;54.80;;;;;;5054834;28;20039;-74
2023/05/04 06:58:15;;;;;;;10.93;3.20;;;21.40;54.60;;;;;;5065690;28;20025;-74
2023/05/04 07:00:41;;;;;;;7.97;3.35;;;21.40;54.80;;;;;;5069858;28;20394;-74
2023/05/04 07:03:07;;;;;;;10.35;2.92;;;21.40;54.80;;;;;;5062746;28;20489;-73
2023/05/04 07:05:36;;;;;;;6.60;3.17;;;21.40;54.90;;;;;;5069889;28;20105;-74
2023/05/04 07:08:02;;;;;;;14.38;3.47;;;21.40;54.90;;;;;;5061674;28;20033;-74
2023/05/04 07:10:28;;;;;;;9.15;3.40;;;21.40;54.80;;;;;;5056948;28;20040;-73
2023/05/04 07:12:54;;;;;;;8.90;3.47;;;21.40;54.80;;;;;;5057586;28;20386;-74
2023/05/04 07:15:20;;;;;;;8.90;3.45;;;21.50;54.80;;;;;;5054920;28;20025;-74
2023/05/04 07:17:47;;;;;;;7.75;3.13;;;21.50;54.70;;;;;;5057117;28;20055;-74
2023/05/04 07:20:16;;;;;;;6.20;2.97;;;21.50;55.00;;;;;;5064634;28;20413;-75
2023/05/04 07:22:42;;;;;;;9.60;3.22;;;21.50;54.80;;;;;;5061488;28;20025;-74
2023/05/04 07:25:08;;;;;;;9.95;2.92;;;21.50;53.70;;;;;;5062271;28;20039;-74
2023/05/04 07:27:34;;;;;;;9.15;3.33;;;21.50;54.90;;;;;;5064995;28;20102;-74
2023/05/04 07:30:01;;;;;;;9.48;3.28;;;21.50;54.80;;;;;;5061972;28;20020;-73
2023/05/04 07:32:27;;;;;;;10.32;3.67;;;21.50;54.80;;;;;;5065691;28;20039;-74
2023/05/04 07:34:53;;;;;;;9.20;3.30;;;21.50;54.80;;;;;;5068351;28;20020;-74
2023/05/04 07:37:19;;;;;;;7.78;3.22;;;21.50;54.20;;;;;;5072545;28;20394;-73
2023/05/04 07:39:44;;;;;;;9.68;3.60;;;21.50;54.90;;;;;;5052931;28;20112;-74
2023/05/04 07:42:10;;;;;;;8.02;2.85;;;21.50;54.70;;;;;;5065321;28;20028;-74
2023/05/04 07:44:36;;;;;;;9.38;2.90;;;21.50;54.80;;;;;;5073951;28;20115;-74
2023/05/04 07:47:02;;;;;;;6.68;3.17;;;21.50;54.90;;;;;;5074100;28;20055;-75
2023/05/04 07:49:27;;;;;;;7.40;3.05;;;21.50;54.60;;;;;;5073048;28;20078;-74
2023/05/04 07:51:53;;;;;;;7.43;2.90;;;21.50;54.80;;;;;;5052872;28;20028;-74
2023/05/04 07:54:19;;;;;;;6.05;3.05;;;21.50;54.70;;;;;;5072101;28;20029;-74
2023/05/04 07:56:45;;;;;;;9.57;3.22;;;21.50;54.70;;;;;;5072157;28;20056;-74
2023/05/04 07:59:11;;;;;;;10.60;3.30;;;21.50;54.60;;;;;;5053635;28;20059;-73
2023/05/04 08:01:37;;;;;;;10.90;3.55;;;21.50;55.20;;;;;;5052475;28;20432;-77
2023/05/04 08:04:02;;;;;;;10.63;3.70;;;21.60;54.80;;;;;;5056079;28;20113;-75
2023/05/04 08:06:28;;;;;;;7.82;3.63;;;21.60;54.80;;;;;;5070903;28;20028;-74
2023/05/04 08:08:54;;;;;;;9.35;2.85;;;21.60;54.90;;;;;;5073283;28;20024;-74
2023/05/04 08:11:20;;;;;;;7.60;3.10;;;21.60;55.50;;;;;;5072986;28;20436;-74
2023/05/04 08:13:49;;;;;;;7.72;3.30;;;21.60;54.90;;;;;;5073474;28;20520;-75
2023/05/04 08:16:15;;;;;;;19.27;3.25;;;21.60;54.80;;;;;;5053543;28;20025;-74
2023/05/04 08:18:42;;;;;;;21.23;4.07;;;21.70;54.80;;;;;;5053164;28;20025;-74
2023/05/04 08:21:08;;;;;;;14.73;3.22;;;21.70;54.80;;;;;;5064327;28;20037;-74
2023/05/04 08:23:33;;;;;;;17.60;3.53;;;21.70;54.60;;;;;;5071399;28;20024;-74
2023/05/04 08:26:03;;;;;;;17.23;3.60;;;21.70;54.80;;;;;;5072743;28;20089;-73
2023/05/04 08:28:30;;;;;;;14.00;3.58;;;21.70;54.90;;;;;;5053890;28;20398;-73
2023/05/04 08:30:56;;;;;;;16.25;3.60;;;21.60;54.90;;;;;;5063611;28;20021;-72
2023/05/04 08:33:22;;;;;;;20.45;3.58;;;21.60;54.60;;;;;;5040951;28;20563;-72
2023/05/04 08:35:48;;;;;;;13.95;3.67;;;21.70;54.80;;;;;;5068618;28;20031;-73
2023/05/04 08:38:14;;;;;;;12.70;3.25;;;21.60;55.40;;;;;;5071672;28;20028;-72
2023/05/04 08:40:46;;;;;;;16.17;3.72;;;21.70;54.50;;;;;;5062795;28;20043;-73
2023/05/04 08:43:12;;;;;;;16.92;3.85;;;21.70;54.90;;;;;;5065647;28;20134;-73
2023/05/04 08:45:39;;;;;;;14.90;2.65;;;21.70;54.60;;;;;;5072924;28;20036;-73
2023/05/04 08:48:08;;;;;;;7.95;3.35;;;21.70;55.40;;;;;;5059158;28;20126;-77
2023/05/04 08:50:36;;;;;;;15.25;3.25;;;21.70;54.70;;;;;;5063134;28;20038;-77
2023/05/04 08:53:06;;;;;;;9.00;2.60;;;21.60;52.60;;;;;;5072688;28;20033;-77
2023/05/04 08:55:34;;;;;;;9.63;3.15;;;21.50;49.60;;;;;;5071622;28;20539;-76
2023/05/04 08:58:03;;;;;;;16.88;3.13;;;21.50;50.90;;;;;;5070481;28;20039;-76
2023/05/04 09:00:32;;;;;;;16.80;3.42;;;21.40;48.80;;;;;;5057508;28;20025;-74
2023/05/04 09:03:02;;;;;;;10.27;2.97;;;21.40;47.80;;;;;;5055961;28;20032;-74
2023/05/04 09:05:29;;;;;;;12.25;3.03;;;21.40;47.80;;;;;;5072245;28;20031;-74
2023/05/04 09:07:55;;;;;;;11.07;3.20;;;21.40;47.50;;;;;;5050948;28;20037;-74
2023/05/04 09:10:21;;;;;;;9.90;2.67;;;21.50;47.40;;;;;;5062126;28;20021;-75
2023/05/04 09:12:47;;;;;;;17.48;3.13;;;21.50;47.30;;;;;;5068802;28;20036;-74
2023/05/04 09:15:16;;;;;;;12.13;3.42;;;21.50;47.40;;;;;;5072465;28;20020;-74
2023/05/04 09:17:42;;;;;;;8.73;3.00;;;21.50;47.70;;;;;;5070766;28;20498;-75
2023/05/04 09:20:09;;;;;;;8.05;2.90;;;21.50;48.20;;;;;;5072229;28;20099;-74
2023/05/04 09:22:35;;;;;;;10.93;3.33;;;21.50;48.40;;;;;;5072162;28;20029;-74
2023/05/04 09:25:11;;;;;;;10.65;3.08;;;21.50;48.50;;;;;;5072225;28;20029;-74
2023/05/04 09:27:40;;;;;;;9.00;3.10;;;21.50;48.80;;;;;;5071826;28;20040;-74
2023/05/04 09:30:07;;;;;;;9.55;3.60;;;21.50;49.00;;;;;;5072193;28;20031;-75
2023/05/04 09:32:47;;;;;;;8.00;2.90;;;21.50;49.20;;;;;;5071760;28;20056;-75
2023/05/04 09:35:13;;;;;;;7.65;3.13;;;21.50;49.30;;;;;;5071989;28;20029;-74
2023/05/04 09:37:45;;;;;;;13.20;3.35;;;21.50;49.40;;;;;;5071873;28;20029;-74
2023/05/04 09:40:13;;;;;;;7.07;2.80;;;21.50;49.50;;;;;;5070648;28;20090;-74
2023/05/04 09:42:39;;;;;;;7.78;3.05;;;21.50;49.70;;;;;;5053994;28;20020;-75
2023/05/04 09:45:07;;;;;;;7.88;2.60;;;21.50;49.80;;;;;;5069736;28;20436;-74
2023/05/04 09:47:38;;;;;;;8.57;3.10;;;21.50;49.80;;;;;;5070226;28;20029;-75
2023/05/04 09:50:14;;;;;;;5.47;2.55;;;21.50;49.90;;;;;;5070901;28;20116;-74
2023/05/04 09:52:44;;;;;;;8.38;2.78;;;21.50;50.50;;;;;;5071713;28;20400;-74
2023/05/04 09:55:13;;;;;;;6.80;2.88;;;21.50;49.90;;;;;;5070521;28;20035;-74
2023/05/04 09:57:43;;;;;;;8.93;2.85;;;21.60;50.00;;;;;;5069474;28;20106;-74
2023/05/04 10:00:11;;;;;;;7.75;2.60;;;21.50;50.00;;;;;;5053725;28;20460;-74
2023/05/04 10:02:38;;;;;;;7.57;2.70;;;21.60;50.10;;;;;;5070329;28;20478;-74
2023/05/04 10:05:06;;;;;;;6.57;2.80;;;21.50;50.10;;;;;;5071361;28;20070;-74
2023/05/04 10:07:32;;;;;;;6.43;2.70;;;21.50;50.10;;;;;;5053156;28;20493;-74
2023/05/04 10:09:58;;;;;;;6.00;2.78;;;21.50;50.10;;;;;;5070347;28;20060;-75
2023/05/04 10:12:24;;;;;;;7.65;2.83;;;21.50;50.10;;;;;;5070112;28;20029;-75
2023/05/04 10:14:53;;;;;;;7.40;2.53;;;21.50;50.30;;;;;;5071435;28;20021;-75
2023/05/04 10:17:57;;;;;;;6.27;2.77;;;21.50;50.30;;;;;;5070116;28;20036;-75
2023/05/04 10:20:42;;;;;;;4.82;2.38;;;21.50;50.30;;;;;;5071467;28;20093;-75
2023/05/04 10:23:47;;;;;;;8.63;3.13;;;21.50;50.30;;;;;;5070363;28;20032;-75
2023/05/04 10:26:58;;;;;;;6.43;2.78;;;21.50;50.30;;;;;;5071409;28;20562;-75
2023/05/04 10:29:27;;;;;;;6.40;2.85;;;21.50;50.40;;;;;;5066355;28;20040;-74
2023/05/04 10:31:53;;;;;;;6.78;2.95;;;21.50;50.50;;;;;;5071023;28;20485;-74
2023/05/04 10:34:33;;;;;;;6.68;2.78;;;21.50;50.50;;;;;;5070225;28;20035;-74
2023/05/04 10:37:00;;;;;;;;;;;21.50;50.50;;;;;;5071657;28;20020;-74
2023/05/04 10:39:29;;;;;;;7.72;3.00;;;21.50;50.50;;;;;;5070880;28;19908;-74
2023/05/04 10:42:05;;;;;;;6.47;2.60;;;21.50;50.60;;;;;;5071165;28;20028;-76
2023/05/04 10:44:47;;;;;;;6.60;2.65;;;21.50;50.60;;;;;;5071190;28;20024;-75
2023/05/04 10:47:13;;;;;;;5.65;2.70;;;21.50;50.60;;;;;;5070832;28;20032;-75
2023/05/04 10:49:39;;;;;;;5.10;2.80;;;21.50;50.60;;;;;;5070885;28;20025;-74
2023/05/04 10:52:11;;;;;;;5.85;2.65;;;21.50;50.70;;;;;;5071171;28;20107;-74
2023/05/04 10:54:38;;;;;;;5.65;2.70;;;21.50;50.60;;;;;;5069866;28;20020;-75
2023/05/04 10:57:10;;;;;;;6.47;2.80;;;21.50;50.70;;;;;;5071461;28;20029;-75
2023/05/04 10:59:36;;;;;;;6.43;3.25;;;21.50;50.70;;;;;;5074842;28;20079;-75
2023/05/04 11:02:03;;;;;;;6.05;2.85;;;21.50;50.60;;;;;;5074851;28;20032;-75
2023/05/04 11:04:30;;;;;;;6.18;2.80;;;21.50;50.80;;;;;;5075004;28;20096;-75
2023/05/04 11:07:01;;;;;;;7.40;3.03;;;21.50;50.80;;;;;;5074675;28;20039;-75
2023/05/04 11:09:33;;;;;;;7.55;2.78;;;21.50;50.70;;;;;;5073283;28;20036;-75
2023/05/04 11:11:59;;;;;;;6.20;2.67;;;21.50;51.40;;;;;;5074815;28;20486;-75
2023/05/04 11:14:27;;;;;;;6.07;2.97;;;21.50;50.90;;;;;;5074824;28;20024;-75
2023/05/04 11:17:08;;;;;;;6.68;2.95;;;21.50;50.80;;;;;;5074564;28;20056;-75
2023/05/04 11:19:34;;;;;;;8.43;2.63;;;21.50;50.90;;;;;;5074868;28;20059;-74
2023/05/04 11:22:01;;;;;;;5.65;2.90;;;21.50;50.80;;;;;;5074604;28;20107;-75
2023/05/04 11:24:43;;;;;;;5.32;2.65;;;21.50;50.90;;;;;;5074816;28;20028;-74
2023/05/04 11:27:21;;;;;;;6.43;2.85;;;21.50;50.90;;;;;;5073275;28;20565;-74
2023/05/04 11:30:03;;;;;;;5.65;2.83;;;21.50;50.90;;;;;;5056620;28;20031;-75
2023/05/04 11:32:41;;;;;;;4.57;2.55;;;21.50;50.90;;;;;;5074255;28;20032;-75
2023/05/04 11:35:13;;;;;;;6.25;2.95;;;21.50;50.80;;;;;;5074386;28;20502;-75
2023/05/04 11:37:43;;;;;;;4.72;2.33;;;21.50;50.80;;;;;;5072832;28;20107;-75
2023/05/04 11:40:12;;;;;;;;;;;21.50;50.80;;;;;;5074855;28;20100;-75
2023/05/04 11:42:42;;;;;;;6.97;2.88;;;21.50;50.80;;;;;;5074398;28;19909;-75
2023/05/04 11:45:13;;;;;;;7.38;2.70;;;21.50;50.80;;;;;;5074226;28;20032;-76
2023/05/04 11:47:39;;;;;;;6.40;2.80;;;21.50;50.80;;;;;;5073832;28;20048;-76
2023/05/04 11:50:08;;;;;;;7.78;3.10;;;21.50;50.70;;;;;;5056032;28;20481;-76
2023/05/04 11:52:35;;;;;;;7.67;3.37;;;21.50;50.80;;;;;;5074100;28;20020;-76
2023/05/04 11:55:02;;;;;;;8.27;3.25;;;21.50;50.80;;;;;;5072692;28;20481;-76
2023/05/04 11:57:30;;;;;;;6.78;3.00;;;21.50;50.80;;;;;;5072654;28;20032;-75
2023/05/04 11:59:56;;;;;;;6.07;3.13;;;21.50;50.80;;;;;;5056195;28;20127;-75
2023/05/04 12:02:22;;;;;;;5.50;2.88;;;21.50;50.80;;;;;;5073932;28;20074;-75
2023/05/04 12:04:48;;;;;;;7.30;3.17;;;21.50;50.90;;;;;;5073920;28;20031;-75
2023/05/04 12:07:14;;;;;;;6.22;2.83;;;21.50;50.90;;;;;;5055764;28;20092;-75
2023/05/04 12:09:47;;;;;;;7.35;2.75;;;21.50;50.90;;;;;;5071544;28;20399;-75
2023/05/04 12:12:19;;;;;;;7.93;3.17;;;21.50;50.90;;;;;;5072610;28;20032;-75
2023/05/04 12:14:51;;;;;;;5.47;3.08;;;21.50;50.90;;;;;;5073676;28;20391;-75
2023/05/04 12:17:19;;;;;;;5.78;3.05;;;21.50;50.80;;;;;;5072024;28;20620;-74
2023/05/04 12:19:55;;;;;;;5.78;3.03;;;21.50;50.90;;;;;;5073562;28;20028;-74
2023/05/04 12:22:28;;;;;;;6.70;3.10;;;21.50;50.80;;;;;;5072557;28;20409;-74
2023/05/04 12:24:57;;;;;;;8.52;3.30;;;21.50;50.80;;;;;;5072471;28;20033;-74
2023/05/04 12:27:24;;;;;;;6.57;3.20;;;21.50;50.80;;;;;;5072198;28;20040;-74
2023/05/04 12:29:53;;;;;;;7.82;3.28;;;21.50;50.80;;;;;;5073613;28;20028;-74
2023/05/04 12:32:19;;;;;;;7.93;3.23;;;21.50;50.80;;;;;;5073872;28;20159;-74
2023/05/04 12:34:45;;;;;;;7.07;2.90;;;21.50;50.80;;;;;;5073620;28;20027;-75
2023/05/04 12:37:11;;;;;;;5.57;3.20;;;21.50;50.80;;;;;;5072234;28;20020;-75
2023/05/04 12:39:38;;;;;;;6.53;3.20;;;21.50;50.80;;;;;;5073632;28;20025;-75
2023/05/04 12:42:04;;;;;;;6.45;3.08;;;21.50;50.80;;;;;;5073264;28;20047;-75
2023/05/04 12:44:30;;;;;;;5.95;2.97;;;21.50;50.80;;;;;;5073577;28;20486;-75
2023/05/04 12:46:56;;;;;;;4.90;3.05;;;21.50;50.70;;;;;;5073518;28;20035;-75
2023/05/04 12:49:22;;;;;;;5.68;3.03;;;21.50;50.80;;;;;;5073251;28;20497;-75